Time;durP1;ratioP1;P1;durP2;ratioP2;P2;SDS_P1;SDS_P2;PMS_P1;PMS_P2;Temp;Humidity;BMP_temperature;BMP_pressure;BME280_temperature;BME280_humidity;BME280_pressure;Samples;Min_cycle;Max_cycle;Signal;HPM_P1;HPM_P2
2022/08/31 00:05:24;;;;;;;10.43;4.45;;;;;;;20.78;56.06;98476.69;4993493;28;20050;-72
2022/08/31 00:07:52;;;;;;;17.10;4.97;;;;;;;20.77;56.15;98475.09;4993369;28;20050;-71
2022/08/31 00:10:26;;;;;;;9.77;5.13;;;;;;;20.71;56.44;98476.78;4993459;28;20085;-73
2022/08/31 00:13:04;;;;;;;8.38;4.25;;;;;;;20.66;56.49;98474.47;4993231;28;20149;-78
2022/08/31 00:15:34;;;;;;;23.98;9.95;;;;;;;20.62;56.57;98479.34;4993457;28;20054;-76
2022/08/31 00:18:02;;;;;;;14.20;4.80;;;;;;;20.60;56.84;98476.16;4975709;28;20112;-73
2022/08/31 00:20:29;;;;;;;9.25;4.20;;;;;;;20.54;56.76;98477.84;4993392;28;20421;-75
2022/08/31 00:23:04;;;;;;;12.50;4.40;;;;;;;20.51;56.73;98475.84;4993087;28;20050;-73
2022/08/31 00:25:33;;;;;;;8.75;4.95;;;;;;;20.49;56.96;98475.50;4993347;28;20085;-75
2022/08/31 00:28:00;;;;;;;11.50;4.60;;;;;;;20.43;57.08;98477.19;4993059;28;20137;-75
2022/08/31 00:30:28;;;;;;;13.90;5.10;;;;;;;20.39;57.46;98476.41;4993135;28;20500;-72
2022/08/31 00:32:55;;;;;;;9.90;4.38;;;;;;;20.35;57.79;98462.34;5008273;28;20420;-70
2022/08/31 00:35:26;;;;;;;10.13;4.60;;;;;;;20.33;57.57;98472.47;4993637;28;20054;-70
2022/08/31 00:37:53;;;;;;;11.73;4.63;;;;;;;20.34;57.56;98479.72;4993002;28;20054;-68
2022/08/31 00:40:20;;;;;;;10.48;4.50;;;;;;;20.37;57.42;98474.00;4993073;28;20046;-69
2022/08/31 00:42:50;;;;;;;8.02;4.32;;;;;;;20.33;57.50;98473.28;4993063;28;20050;-68
2022/08/31 00:45:17;;;;;;;11.48;4.25;;;;;;;20.33;57.76;98472.47;4993043;28;20449;-70
2022/08/31 00:47:44;;;;;;;14.38;5.15;;;;;;;20.33;57.49;98472.47;4993061;28;20502;-69
2022/08/31 00:50:14;;;;;;;10.90;4.18;;;;;;;20.33;57.76;98469.63;4993940;28;20046;-67
2022/08/31 00:52:45;;;;;;;10.85;4.45;;;;;;;20.32;57.51;98465.22;4993033;28;20529;-70
2022/08/31 00:55:16;;;;;;;21.33;4.70;;;;;;;20.30;57.67;98467.66;4993084;28;20085;-71
2022/08/31 00:57:46;;;;;;;8.02;4.13;;;;;;;20.26;57.90;98479.03;4992578;28;20060;-67
2022/08/31 01:00:17;;;;;;;8.00;3.95;;;;;;;20.26;57.94;98466.91;4992894;28;20046;-71
2022/08/31 01:02:45;;;;;;;12.15;4.38;;;;;;;20.25;58.04;98457.63;4992876;28;20094;-66
2022/08/31 01:05:13;;;;;;;6.97;4.35;;;;;;;20.24;58.17;98466.53;4993300;28;20050;-73
2022/08/31 01:07:41;;;;;;;11.38;5.05;;;;;;;20.23;58.22;98464.94;4992595;28;20065;-71
2022/08/31 01:10:09;;;;;;;12.00;4.25;;;;;;;20.20;58.18;98462.97;4993237;28;20081;-73
2022/08/31 01:12:36;;;;;;;10.30;5.60;;;;;;;20.20;58.30;98469.41;4996593;28;20551;-72
2022/08/31 01:15:07;;;;;;;9.90;4.32;;;;;;;20.23;58.42;98459.28;4996645;28;20057;-72
2022/08/31 01:17:35;;;;;;;8.85;4.75;;;;;;;20.16;58.92;98456.56;4996398;28;20506;-71
2022/08/31 01:20:10;;;;;;;7.93;4.72;;;;;;;20.12;59.09;98461.41;4996447;28;20050;-72
2022/08/31 01:22:43;;;;;;;7.70;4.53;;;;;;;20.06;59.24;98457.44;4996123;28;20628;-69
2022/08/31 01:25:12;;;;;;;13.30;4.45;;;;;;;19.98;59.58;98454.72;4990891;28;20100;-72
2022/08/31 01:27:39;;;;;;;9.38;4.28;;;;;;;19.93;59.79;98460.03;4976792;28;20051;-73
2022/08/31 01:30:10;;;;;;;9.63;5.15;;;;;;;19.92;60.14;98464.06;4982248;28;20046;-72
2022/08/31 01:32:38;;;;;;;11.20;4.65;;;;;;;19.89;60.00;98464.91;4979976;28;20129;-72
2022/08/31 01:35:06;;;;;;;17.20;4.47;;;;;;;19.90;60.07;98461.66;4976886;28;20133;-69
2022/08/31 01:37:37;;;;;;;11.93;4.95;;;;;;;19.88;60.26;98463.31;4976530;28;20057;-72
2022/08/31 01:40:06;;;;;;;8.57;4.88;;;;;;;19.83;60.61;98460.94;4976618;28;20043;-71
2022/08/31 01:42:33;;;;;;;13.57;4.75;;;;;;;19.80;60.60;98458.94;4976583;28;20085;-71
2022/08/31 01:45:01;;;;;;;8.15;4.90;;;;;;;19.81;60.63;98460.56;4994656;28;20395;-72
2022/08/31 01:47:30;;;;;;;9.23;4.85;;;;;;;19.78;60.84;98445.25;4995850;28;20042;-71
2022/08/31 01:49:57;;;;;;;9.43;5.32;;;;;;;19.77;60.86;98446.50;4996096;28;20552;-73
2022/08/31 01:52:26;;;;;;;7.45;4.97;;;;;;;19.73;61.25;98451.38;4995859;28;20470;-69
2022/08/31 01:54:54;;;;;;;9.67;4.50;;;;;;;19.65;61.45;98449.84;4996010;28;20116;-74
2022/08/31 01:57:22;;;;;;;10.25;5.35;;;;;;;19.58;61.79;98455.56;4979507;28;20529;-72
2022/08/31 02:00:04;;;;;;;14.85;4.55;;;;;;;19.53;61.79;98447.56;4976618;28;20046;-74
2022/08/31 02:02:31;;;;;;;8.30;5.15;;;;;;;19.50;61.90;98441.94;4976223;28;20141;-73
2022/08/31 02:04:58;;;;;;;9.50;5.13;;;;;;;19.51;62.07;98443.56;4975972;28;20082;-74
2022/08/31 02:07:25;;;;;;;6.32;4.47;;;;;;;19.53;61.97;98446.75;4976153;28;20053;-76
2022/08/31 02:09:53;;;;;;;11.02;5.05;;;;;;;19.49;61.97;98438.34;4976337;28;20061;-70
2022/08/31 02:12:20;;;;;;;11.02;4.93;;;;;;;19.47;62.17;98448.41;4975760;28;20145;-70
2022/08/31 02:14:47;;;;;;;9.40;5.60;;;;;;;19.44;62.45;98444.44;4983622;28;20042;-70
2022/08/31 02:17:15;;;;;;;16.48;5.35;;;;;;;19.42;62.26;98446.84;4995211;28;20517;-69
2022/08/31 02:19:42;;;;;;;7.68;4.97;;;;;;;19.33;62.44;98449.34;4995484;28;20069;-69
2022/08/31 02:22:08;;;;;;;9.98;4.72;;;;;;;19.30;62.66;98444.56;4994693;28;20505;-70
2022/08/31 02:24:35;;;;;;;11.73;5.75;;;;;;;19.28;62.80;98441.38;5010805;28;20097;-69
2022/08/31 02:27:02;;;;;;;9.43;5.18;;;;;;;19.28;62.66;98435.72;4995752;28;20046;-68
2022/08/31 02:29:29;;;;;;;12.00;5.15;;;;;;;19.30;62.44;98432.50;4995248;28;20051;-71
2022/08/31 02:31:57;;;;;;;10.77;5.22;;;;;;;19.24;62.55;98440.56;4995159;28;20138;-66
2022/08/31 02:34:24;;;;;;;10.68;4.85;;;;;;;19.15;62.89;98428.94;4994802;28;20065;-70
2022/08/31 02:36:51;;;;;;;14.88;4.97;;;;;;;19.13;63.11;98437.00;4995049;28;20077;-71
2022/08/31 02:39:18;;;;;;;11.80;5.05;;;;;;;19.12;63.19;98434.59;4995166;28;20052;-71
2022/08/31 02:41:46;;;;;;;11.02;4.75;;;;;;;19.08;63.14;98434.66;4994897;28;20050;-69
2022/08/31 02:44:13;;;;;;;7.55;4.78;;;;;;;19.05;63.12;98438.31;4994665;28;20052;-69
2022/08/31 02:46:43;;;;;;;9.70;4.78;;;;;;;19.03;63.25;98425.81;4994724;28;20520;-71
2022/08/31 02:49:10;;;;;;;9.60;4.40;;;;;;;19.05;63.11;98429.03;4994868;28;20054;-66
2022/08/31 02:51:41;;;;;;;9.45;5.20;;;;;;;19.06;63.11;98434.28;4994674;28;20048;-69
2022/08/31 02:54:08;;;;;;;13.23;5.00;;;;;;;19.00;63.37;98427.47;4994810;28;20076;-71
2022/08/31 02:56:35;;;;;;;7.28;4.90;;;;;;;18.96;63.54;98435.16;4994571;28;20054;-66
2022/08/31 02:59:02;;;;;;;10.18;4.78;;;;;;;18.94;63.45;98426.31;4994630;28;20077;-66
2022/08/31 03:01:29;;;;;;;9.48;4.80;;;;;;;18.94;63.59;98431.94;4994219;28;20058;-69
2022/08/31 03:03:56;;;;;;;8.88;4.43;;;;;;;18.92;63.53;98431.56;4994370;28;20050;-71
2022/08/31 03:06:23;;;;;;;10.75;4.82;;;;;;;18.92;63.56;98433.59;4994524;28;20057;-70
2022/08/31 03:08:50;;;;;;;8.38;4.88;;;;;;;18.93;63.52;98429.53;4994555;28;20513;-70
2022/08/31 03:11:18;;;;;;;9.93;4.75;;;;;;;18.97;63.45;98422.66;4994143;28;20053;-71
2022/08/31 03:13:44;;;;;;;13.32;4.72;;;;;;;18.98;63.24;98424.25;4994475;28;20085;-69
2022/08/31 03:16:13;;;;;;;12.43;4.57;;;;;;;19.03;63.13;98423.00;4994331;28;20054;-66
2022/08/31 03:18:41;;;;;;;9.63;4.65;;;;;;;19.02;63.08;98425.06;4993921;28;20572;-69
2022/08/31 03:21:08;;;;;;;11.75;4.43;;;;;;;19.04;63.25;98419.78;4994203;28;20137;-70
2022/08/31 03:23:35;;;;;;;9.73;4.32;;;;;;;19.10;62.85;98422.97;4993992;28;20046;-71
2022/08/31 03:26:04;;;;;;;16.23;5.65;;;;;;;19.11;62.83;98419.72;4994272;28;20520;-71
2022/08/31 03:28:33;;;;;;;11.07;4.63;;;;;;;19.17;62.92;98426.53;4993892;28;20144;-71
2022/08/31 03:31:00;;;;;;;17.20;5.20;;;;;;;19.17;62.61;98418.06;4994190;28;20511;-71
2022/08/31 03:33:27;;;;;;;8.52;4.88;;;;;;;19.19;62.69;98426.13;4993212;28;20153;-72
2022/08/31 03:35:54;;;;;;;11.13;4.68;;;;;;;19.16;62.61;98427.72;4993625;28;20053;-66
2022/08/31 03:38:20;;;;;;;8.65;4.57;;;;;;;19.17;62.62;98423.72;4993886;28;20058;-71
2022/08/31 03:40:49;;;;;;;13.00;4.65;;;;;;;19.10;62.61;98415.28;4994211;28;20050;-69
2022/08/31 03:43:16;;;;;;;8.20;4.83;;;;;;;19.07;62.67;98418.94;4993684;28;20046;-69
2022/08/31 03:45:43;;;;;;;12.75;4.75;;;;;;;19.07;62.79;98413.31;4993890;28;20549;-67
2022/08/31 03:48:10;;;;;;;11.25;4.78;;;;;;;19.07;62.53;98418.94;4993808;28;20062;-67
2022/08/31 03:50:40;;;;;;;9.70;4.00;;;;;;;19.09;62.62;98415.72;4993602;28;20046;-70
2022/08/31 03:53:08;;;;;;;15.98;4.95;;;;;;;19.10;62.44;98406.84;4993736;28;20527;-70
2022/08/31 03:55:37;;;;;;;10.70;4.47;;;;;;;19.18;62.40;98407.56;4993539;28;20046;-69
2022/08/31 03:58:06;;;;;;;10.90;4.40;;;;;;;19.22;62.13;98405.53;4993684;28;20054;-72
2022/08/31 04:00:33;;;;;;;12.50;4.47;;;;;;;19.15;62.08;98412.03;4994136;28;20048;-69
2022/08/31 04:03:01;;;;;;;7.00;4.43;;;;;;;19.17;62.22;98406.78;4993617;28;20421;-77
2022/08/31 04:05:29;;;;;;;10.20;5.07;;;;;;;19.24;62.21;98403.91;4993613;28;20464;-72
2022/08/31 04:07:57;;;;;;;8.80;4.90;;;;;;;19.22;62.09;98414.78;4993617;28;20049;-73
2022/08/31 04:10:24;;;;;;;7.07;4.55;;;;;;;19.21;62.06;98407.53;4993532;28;20058;-78
2022/08/31 04:12:51;;;;;;;10.32;4.78;;;;;;;19.23;62.13;98405.13;4993568;28;20141;-78
2022/08/31 04:15:19;;;;;;;17.65;4.57;;;;;;;19.29;61.81;98403.47;4993583;28;20050;-76
2022/08/31 04:17:46;;;;;;;9.90;5.10;;;;;;;19.37;61.69;98405.03;4993185;28;20089;-77
2022/08/31 04:20:15;;;;;;;11.73;4.28;;;;;;;19.40;61.59;98397.72;4993403;28;20134;-75
2022/08/31 04:22:42;;;;;;;7.95;4.45;;;;;;;19.45;61.71;98395.25;4993149;28;20116;-78
2022/08/31 04:25:09;;;;;;;9.73;3.83;;;;;;;19.56;61.05;98395.94;4993216;28;20085;-74
2022/08/31 04:27:39;;;;;;;8.70;4.10;;;;;;;19.56;60.94;98395.94;4993367;28;20050;-78
2022/08/31 04:30:08;;;;;;;6.95;4.40;;;;;;;19.59;60.64;98399.94;4993630;28;20050;-73
2022/08/31 04:32:35;;;;;;;12.50;4.07;;;;;;;19.64;60.68;98405.94;4993835;28;20046;-73
2022/08/31 04:35:03;;;;;;;6.75;4.47;;;;;;;19.89;59.97;98397.97;4997221;28;20047;-72
2022/08/31 04:37:38;;;;;;;7.93;4.80;;;;;;;20.28;58.94;98399.50;4993198;28;20487;-77
2022/08/31 04:40:18;;;;;;;6.53;4.40;;;;;;;20.41;58.52;98401.34;4993434;28;20505;-77
2022/08/31 04:42:51;;;;;;;11.25;4.22;;;;;;;20.48;58.42;98401.22;4993187;28;20066;-77
2022/08/31 04:45:18;;;;;;;9.13;3.92;;;;;;;20.52;58.14;98406.84;4995677;28;20050;-76
2022/08/31 04:47:45;;;;;;;8.15;3.85;;;;;;;20.55;58.00;98409.63;4997253;28;20417;-77
2022/08/31 04:50:15;;;;;;;10.68;4.50;;;;;;;20.59;57.83;98412.38;4997045;28;20058;-76
2022/08/31 04:52:43;;;;;;;7.10;3.97;;;;;;;20.69;57.64;98411.44;4997013;28;20053;-75
2022/08/31 04:55:28;;;;;;;8.90;4.20;;;;;;;20.92;57.07;98411.44;4996621;28;20054;-74
2022/08/31 04:57:56;;;;;;;16.50;4.03;;;;;;;21.09;56.35;98408.38;4996813;28;20054;-73
2022/08/31 05:00:23;;;;;;;7.07;3.83;;;;;;;21.36;55.59;98394.94;4996845;28;20065;-74
2022/08/31 05:02:52;;;;;;;8.60;3.83;;;;;;;21.51;55.02;98404.78;4996636;28;20404;-77
2022/08/31 05:05:19;;;;;;;11.57;3.70;;;;;;;21.38;55.39;98394.53;4996922;28;20054;-77
2022/08/31 05:07:45;;;;;;;5.82;4.20;;;;;;;21.32;55.17;98408.34;4996642;28;20050;-72
2022/08/31 05:10:13;;;;;;;6.75;4.10;;;;;;;21.08;55.78;98401.09;4996727;28;20050;-76
2022/08/31 05:12:40;;;;;;;6.80;3.83;;;;;;;20.96;56.03;98409.41;4996673;28;20061;-75
2022/08/31 05:15:07;;;;;;;9.18;4.03;;;;;;;20.92;56.15;98402.97;4996598;28;20148;-76
2022/08/31 05:17:34;;;;;;;11.07;5.15;;;;;;;20.85;56.50;98409.56;4996369;28;20050;-76
2022/08/31 05:20:04;;;;;;;6.28;3.92;;;;;;;20.65;56.66;98400.16;4996393;28;20193;-76
2022/08/31 05:22:31;;;;;;;7.50;3.85;;;;;;;20.60;57.00;98397.03;4996172;28;20061;-77
2022/08/31 05:24:58;;;;;;;8.75;4.30;;;;;;;20.64;56.82;98398.56;4996362;28;20477;-74
2022/08/31 05:27:25;;;;;;;10.43;4.10;;;;;;;20.77;56.75;98407.25;4996089;28;20046;-76
2022/08/31 05:29:51;;;;;;;6.85;4.35;;;;;;;20.79;56.90;98411.25;4996433;28;20053;-76
2022/08/31 05:32:18;;;;;;;12.00;4.03;;;;;;;20.77;56.66;98413.72;4996235;28;20053;-75
2022/08/31 05:34:45;;;;;;;9.68;3.63;;;;;;;20.70;56.95;98407.38;4996347;28;20101;-78
2022/08/31 05:37:12;;;;;;;11.07;3.80;;;;;;;20.58;57.08;98405.13;4996038;28;20050;-73
2022/08/31 05:39:39;;;;;;;8.35;3.67;;;;;;;20.52;57.29;98418.91;4996092;28;20513;-74
2022/08/31 05:42:06;;;;;;;13.95;4.30;;;;;;;20.46;57.38;98425.50;4996000;28;20049;-72
2022/08/31 05:44:35;;;;;;;7.47;4.07;;;;;;;20.33;58.01;98427.25;4996640;28;20058;-76
2022/08/31 05:47:05;;;;;;;11.05;3.90;;;;;;;20.16;58.26;98425.50;4994874;28;20068;-70
2022/08/31 05:49:33;;;;;;;12.50;4.10;;;;;;;20.01;58.63;98421.22;4996006;28;20076;-73
2022/08/31 05:52:01;;;;;;;8.40;3.60;;;;;;;19.87;58.64;98428.63;4995747;28;20058;-68
2022/08/31 05:54:28;;;;;;;8.40;4.32;;;;;;;19.79;58.72;98434.78;4995599;28;20390;-71
2022/08/31 05:56:55;;;;;;;8.50;3.83;;;;;;;19.74;58.79;98436.03;4995106;28;20501;-68
2022/08/31 05:59:28;;;;;;;11.13;3.58;;;;;;;19.72;58.74;98438.47;4995629;28;20054;-69
2022/08/31 06:01:55;;;;;;;16.52;3.85;;;;;;;19.68;58.76;98439.72;4995533;28;20054;-69
2022/08/31 06:04:23;;;;;;;12.15;3.90;;;;;;;19.67;59.03;98449.44;4995818;28;20137;-69
2022/08/31 06:06:51;;;;;;;5.60;3.92;;;;;;;19.67;58.80;98441.78;4995234;28;20128;-70
2022/08/31 06:09:18;;;;;;;7.47;3.70;;;;;;;19.63;58.99;98445.84;4994471;28;20103;-70
2022/08/31 06:11:45;;;;;;;6.97;3.40;;;;;;;19.69;58.62;98444.97;4995525;28;20054;-75
2022/08/31 06:14:12;;;;;;;7.13;3.40;;;;;;;19.72;58.55;98443.34;4995438;28;20050;-68
2022/08/31 06:16:43;;;;;;;9.48;3.80;;;;;;;19.83;58.38;98444.00;4995499;28;20058;-69
2022/08/31 06:19:10;;;;;;;19.67;3.95;;;;;;;19.91;57.77;98451.19;4995347;28;20553;-69
2022/08/31 06:21:39;;;;;;;9.60;3.38;;;;;;;20.01;57.31;98443.81;4995445;28;20066;-69
2022/08/31 06:24:17;;;;;;;6.53;3.17;;;;;;;20.16;56.91;98445.25;4995225;28;20055;-72
2022/08/31 06:26:50;;;;;;;11.25;3.75;;;;;;;20.48;55.95;98448.44;4995192;28;20072;-70
2022/08/31 06:29:23;;;;;;;5.97;3.13;;;;;;;20.86;54.84;98449.91;4995157;28;20057;-69
2022/08/31 06:31:50;;;;;;;7.35;2.78;;;;;;;21.26;53.91;98440.41;4995082;28;20048;-69
2022/08/31 06:34:19;;;;;;;5.30;2.70;;;;;;;21.35;53.36;98438.59;4995608;28;20138;-67
2022/08/31 06:36:48;;;;;;;8.15;3.72;;;;;;;21.39;53.13;98444.22;4994931;28;20061;-69
2022/08/31 06:39:15;;;;;;;10.25;3.00;;;;;;;21.21;53.38;98449.38;4994998;28;20050;-72
2022/08/31 06:41:42;;;;;;;7.13;3.42;;;;;;;21.05;54.07;98447.19;4994865;28;20057;-68
2022/08/31 06:44:12;;;;;;;6.47;3.13;;;;;;;20.89;54.01;98449.06;4994675;28;20061;-69
2022/08/31 06:46:40;;;;;;;9.07;2.97;;;;;;;20.73;54.10;98441.25;4995006;28;20054;-69
2022/08/31 06:49:13;;;;;;;5.57;2.75;;;;;;;20.72;54.26;98444.50;5009198;28;20049;-73
2022/08/31 06:51:40;;;;;;;5.28;2.55;;;;;;;20.91;53.93;98441.75;4994714;28;20064;-69
2022/08/31 06:54:10;;;;;;;13.02;2.60;;;;;;;21.25;52.87;98452.94;4994301;28;20161;-68
2022/08/31 06:56:59;;;;;;;5.85;2.45;;;;;;;21.24;52.60;98437.19;4994695;28;20469;-70
2022/08/31 06:59:26;;;;;;;7.57;2.80;;;;;;;21.47;52.04;98442.88;5009189;28;20082;-69
2022/08/31 07:02:00;;;;;;;5.47;2.67;;;;;;;21.52;51.59;98442.34;4994231;28;20046;-68
2022/08/31 07:04:33;;;;;;;7.50;2.80;;;;;;;21.33;51.99;98443.91;4994536;28;20104;-68
2022/08/31 07:07:02;;;;;;;11.77;2.53;;;;;;;21.20;52.41;98439.31;4994308;28;20059;-71
2022/08/31 07:09:29;;;;;;;9.75;2.50;;;;;;;21.47;52.01;98442.88;4994548;28;20082;-68
2022/08/31 07:11:56;;;;;;;9.65;2.78;;;;;;;22.17;50.06;98443.56;4994354;28;20600;-69
2022/08/31 07:14:25;;;;;;;6.65;2.45;;;;;;;22.99;48.33;98442.13;4994169;28;20050;-69
2022/08/31 07:16:55;;;;;;;8.05;2.38;;;;;;;23.36;47.12;98441.59;4994039;28;20054;-67
2022/08/31 07:19:23;;;;;;;7.53;2.30;;;;;;;23.32;47.51;98440.91;4994225;28;20457;-71
2022/08/31 07:21:53;;;;;;;4.75;2.70;;;;;;;23.41;47.13;98445.16;4992639;28;20298;-70
2022/08/31 07:24:24;;;;;;;3.17;2.13;;;;;;;23.16;47.61;98440.09;4994349;28;20064;-68
2022/08/31 07:27:03;;;;;;;3.65;2.30;;;;;;;23.04;47.96;98440.78;4993682;28;20097;-67
2022/08/31 07:29:36;;;;;;;8.90;2.88;;;;;;;22.78;48.33;98450.31;4993976;28;20050;-70
2022/08/31 07:32:03;;;;;;;8.10;2.53;;;;;;;22.38;49.00;98443.88;4994038;28;20042;-68
2022/08/31 07:34:32;;;;;;;5.28;2.70;;;;;;;22.12;49.67;98446.88;4993764;28;20050;-67
2022/08/31 07:42:38;;;;;;;6.63;2.35;;;;;;;21.54;50.82;98448.38;4993423;28;20053;-67
2022/08/31 07:45:10;;;;;;;9.95;3.10;;;;;;;21.42;51.15;98447.00;4993423;28;20414;-67
2022/08/31 07:47:45;;;;;;;3.38;2.35;;;;;;;21.30;51.14;98449.63;4993333;28;20081;-69
2022/08/31 07:50:16;;;;;;;4.43;1.88;;;;;;;21.22;51.20;98459.44;4993451;28;20046;-67
2022/08/31 07:52:52;;;;;;;18.00;2.72;;;;;;;21.10;51.46;98448.75;4993509;28;20046;-68
2022/08/31 07:55:22;;;;;;;3.72;2.05;;;;;;;20.92;52.03;98456.69;4993560;28;20046;-67
2022/08/31 07:57:52;;;;;;;3.93;2.13;;;;;;;20.82;52.43;98455.63;4993468;28;20407;-67
2022/08/31 08:00:27;;;;;;;3.65;1.77;;;;;;;20.69;52.70;98451.00;4992407;28;20388;-66
2022/08/31 08:02:55;;;;;;;8.30;1.80;;;;;;;20.51;53.07;98468.19;5006810;28;20510;-68
2022/08/31 08:05:25;;;;;;;8.00;1.95;;;;;;;20.38;53.29;98455.88;4990440;28;20066;-68
2022/08/31 08:08:05;;;;;;;13.35;1.95;;;;;;;20.35;53.79;98455.91;4992327;28;20046;-68
2022/08/31 08:10:44;;;;;;;6.40;1.70;;;;;;;20.50;53.82;98454.47;4993198;28;20053;-69
2022/08/31 08:13:18;;;;;;;12.30;1.90;;;;;;;20.77;53.19;98452.47;4992859;28;20038;-67
2022/08/31 08:15:49;;;;;;;3.92;2.10;;;;;;;20.91;52.67;98457.91;4993010;28;20132;-69
2022/08/31 08:18:18;;;;;;;4.18;1.60;;;;;;;20.90;52.74;98459.16;4992633;28;20521;-69
2022/08/31 08:20:45;;;;;;;5.22;2.10;;;;;;;20.96;52.33;98454.66;4992624;28;20064;-68
2022/08/31 08:23:14;;;;;;;7.63;2.10;;;;;;;21.06;52.37;98453.66;4993137;28;20057;-69
2022/08/31 08:25:46;;;;;;;7.07;1.88;;;;;;;21.06;52.55;98470.63;4992737;28;20081;-69
2022/08/31 08:28:16;;;;;;;12.77;2.47;;;;;;;21.21;51.89;98466.34;4993095;28;20057;-71
2022/08/31 08:31:04;;;;;;;6.80;1.90;;;;;;;21.21;52.08;98460.69;4992418;28;20057;-68
2022/08/31 08:33:34;;;;;;;7.57;1.65;;;;;;;21.50;51.45;98462.59;4992381;28;20490;-68
2022/08/31 08:36:06;;;;;;;3.33;1.88;;;;;;;21.59;51.13;98453.56;4993164;28;20062;-70
2022/08/31 08:38:37;;;;;;;6.15;1.52;;;;;;;21.58;50.88;98464.06;4992451;28;20069;-68
2022/08/31 08:41:11;;;;;;;10.82;2.22;;;;;;;21.55;51.11;98464.13;4993079;28;20054;-70
2022/08/31 08:43:41;;;;;;;6.15;2.28;;;;;;;21.71;50.84;98469.91;4991968;28;20149;-69
2022/08/31 08:46:13;;;;;;;5.57;1.40;;;;;;;21.73;50.70;98459.75;4993145;28;20501;-71
2022/08/31 08:49:13;;;;;;;2.63;1.50;;;;;;;21.70;50.53;98466.28;4993002;28;20053;-70
2022/08/31 08:51:41;;;;;;;1.98;1.23;;;;;;;21.64;50.30;98456.69;4992111;28;20050;-69
2022/08/31 08:54:17;;;;;;;9.88;1.63;;;;;;;21.88;49.92;98457.50;4992160;28;20078;-67
2022/08/31 08:56:47;;;;;;;7.97;1.20;;;;;;;22.35;49.00;98450.44;4993120;28;20148;-69
2022/08/31 08:59:16;;;;;;;6.35;1.65;;;;;;;23.08;47.46;98462.16;4991674;28;20510;-68
2022/08/31 09:01:49;;;;;;;3.38;1.52;;;;;;;23.76;45.78;98469.78;4991428;28;20054;-68
2022/08/31 09:04:17;;;;;;;3.78;1.75;;;;;;;24.77;44.08;98461.19;4991447;28;20058;-67
2022/08/31 09:07:07;;;;;;;8.68;2.28;;;;;;;25.88;41.28;98463.59;4991787;28;20069;-68
2022/08/31 09:09:56;;;;;;;4.75;1.52;;;;;;;25.86;41.05;98462.47;4992301;28;20038;-69
2022/08/31 09:12:30;;;;;;;5.93;1.38;;;;;;;24.97;42.19;98469.50;4991955;28;20548;-67
2022/08/31 09:15:27;;;;;;;4.28;1.27;;;;;;;24.52;42.95;98469.66;4992189;28;20053;-72
2022/08/31 09:18:12;;;;;;;2.50;1.20;;;;;;;24.17;43.37;98472.72;4990983;28;20580;-69
2022/08/31 09:20:40;;;;;;;2.92;1.77;;;;;;;23.78;44.25;98484.34;4989249;28;20053;-71
2022/08/31 09:23:06;;;;;;;3.17;1.20;;;;;;;23.27;45.16;98466.97;4991505;28;20042;-72
2022/08/31 09:25:57;;;;;;;4.10;1.42;;;;;;;22.74;46.31;98478.75;4992870;28;20054;-69
2022/08/31 09:28:34;;;;;;;3.38;1.65;;;;;;;22.19;48.30;98501.38;4990835;28;20553;-68
2022/08/31 09:31:02;;;;;;;4.57;1.38;;;;;;;21.92;49.11;98497.84;4991432;28;20132;-69
2022/08/31 09:33:33;;;;;;;4.28;1.30;;;;;;;21.82;50.41;98490.38;4994158;28;20126;-68
2022/08/31 09:36:16;;;;;;;2.40;1.40;;;;;;;21.73;51.21;98489.31;4996021;28;20046;-68
2022/08/31 09:38:45;;;;;;;3.97;1.30;;;;;;;21.97;51.18;98500.19;4995864;28;20046;-68
2022/08/31 09:41:27;;;;;;;3.87;1.57;;;;;;;22.37;50.44;98496.16;4995705;28;20500;-69
2022/08/31 09:44:46;;;;;;;3.50;1.40;;;;;;;22.52;49.86;98494.63;4985778;28;20789;-68
2022/08/31 09:47:29;;;;;;;5.85;1.67;;;;;;;23.24;47.89;98489.78;4955166;28;20644;-67
2022/08/31 09:49:56;;;;;;;4.30;1.65;;;;;;;24.07;46.42;98483.13;4990690;28;20042;-69
2022/08/31 09:55:23;;;;;;;4.05;1.70;;;;;;;25.14;43.64;98490.94;5006981;28;20064;-69
2022/08/31 09:58:01;;;;;;;6.65;1.77;;;;;;;24.78;43.78;98485.53;4988561;28;20054;-68
2022/08/31 10:00:38;;;;;;;4.47;1.35;;;;;;;24.65;43.79;98489.59;4984794;28;20056;-68
2022/08/31 10:03:08;;;;;;;4.07;1.45;;;;;;;24.43;44.07;98485.78;4991042;28;20105;-69
2022/08/31 10:05:42;;;;;;;6.25;1.50;;;;;;;24.43;43.88;98491.47;4995682;28;20429;-68
2022/08/31 10:08:32;;;;;;;3.00;1.02;;;;;;;24.37;43.80;98493.25;4995768;28;20498;-72
2022/08/31 10:11:11;;;;;;;4.30;1.50;;;;;;;24.17;44.06;98506.81;4995190;28;20050;-73
2022/08/31 10:13:45;;;;;;;7.47;1.50;;;;;;;24.12;43.74;98505.34;4995387;28;20056;-69
2022/08/31 10:16:28;;;;;;;6.22;1.60;;;;;;;23.88;44.02;98509.63;4995309;28;20089;-71
2022/08/31 10:19:05;;;;;;;6.15;1.65;;;;;;;23.36;45.18;98509.72;4994839;28;20080;-70
2022/08/31 10:21:42;;;;;;;5.03;1.33;;;;;;;23.06;45.49;98495.03;4994733;28;20443;-70
2022/08/31 10:24:32;;;;;;;4.65;1.00;;;;;;;22.91;45.84;98499.44;4993771;28;20053;-69
2022/08/31 10:27:30;;;;;;;9.18;1.23;;;;;;;23.39;45.09;98508.06;4994297;28;20046;-70
2022/08/31 10:30:01;;;;;;;2.78;1.08;;;;;;;23.42;44.67;98512.84;4995246;28;20501;-71
2022/08/31 10:32:52;;;;;;;3.40;1.17;;;;;;;23.76;44.11;98503.84;4993657;28;20073;-69
2022/08/31 10:35:45;;;;;;;3.05;1.23;;;;;;;23.98;44.05;98505.72;4993703;28;20072;-70
2022/08/31 10:38:25;;;;;;;2.53;1.23;;;;;;;24.19;43.42;98510.03;4993253;28;20054;-71
2022/08/31 10:41:10;;;;;;;;;;;;;;;24.03;43.67;98522.22;4994750;28;20394;-69
2022/08/31 10:43:47;;;;;;;4.78;1.40;;;;;;;24.20;43.47;98514.47;4993786;28;20296;-71
2022/08/31 10:46:15;;;;;;;10.77;1.58;;;;;;;24.29;43.38;98518.25;4994627;28;20046;-70
2022/08/31 10:48:45;;;;;;;3.95;1.30;;;;;;;24.31;43.11;98512.91;4994442;28;20141;-71
2022/08/31 10:51:21;;;;;;;2.20;1.30;;;;;;;24.38;43.30;98520.44;4994447;28;20185;-70
2022/08/31 10:54:27;;;;;;;4.65;1.50;;;;;;;24.20;43.77;98514.47;4993548;28;20052;-69
2022/08/31 10:57:18;;;;;;;5.07;1.40;;;;;;;23.92;44.93;98526.56;4993407;28;20406;-72
2022/08/31 10:59:50;;;;;;;2.15;1.20;;;;;;;23.44;46.06;98527.38;4994703;28;20400;-74
2022/08/31 11:02:54;;;;;;;3.60;1.17;;;;;;;22.53;49.03;98535.13;4994161;28;20100;-69
2022/08/31 11:05:28;;;;;;;;;;;;;;;21.67;51.29;98542.75;4980696;28;20147;-73
2022/08/31 11:08:30;;;;;;;2.58;1.25;;;;;;;21.58;51.79;98545.34;4993701;28;19931;-72
2022/08/31 11:10:59;;;;;;;2.45;1.33;;;;;;;21.81;51.14;98542.56;4993849;28;20042;-73
2022/08/31 11:13:49;;;;;;;2.60;1.20;;;;;;;21.97;50.39;98539.84;4993033;28;20053;-74
2022/08/31 11:16:35;;;;;;;4.15;1.33;;;;;;;22.27;49.81;98536.84;5009881;28;20054;-74
2022/08/31 11:19:18;;;;;;;4.53;1.10;;;;;;;22.50;49.20;98541.66;4999562;28;20523;-74
2022/08/31 11:22:06;;;;;;;1.95;1.20;;;;;;;22.57;48.52;98542.31;4991547;28;20052;-70
2022/08/31 11:25:02;;;;;;;3.85;0.77;;;;;;;22.36;47.96;98525.72;4993691;28;20042;-74
2022/08/31 11:27:38;;;;;;;1.75;0.85;;;;;;;21.86;49.10;98530.75;4993358;28;20469;-72
2022/08/31 11:30:25;;;;;;;1.90;0.93;;;;;;;21.71;49.54;98535.81;4993170;28;20513;-71
2022/08/31 11:32:58;;;;;;;3.05;0.95;;;;;;;21.97;48.75;98520.03;4992928;28;20042;-75
2022/08/31 11:36:18;;;;;;;5.30;0.80;;;;;;;22.18;48.41;98530.13;4993824;28;20050;-70
2022/08/31 11:39:04;;;;;;;2.88;1.10;;;;;;;22.40;47.90;98526.44;4954788;28;20054;-69
2022/08/31 11:41:50;;;;;;;2.85;1.15;;;;;;;22.57;47.28;98516.00;4990020;28;20406;-71
2022/08/31 11:44:29;;;;;;;2.00;0.95;;;;;;;22.43;47.62;98539.75;5005300;28;20093;-70
2022/08/31 11:47:27;;;;;;;3.33;0.90;;;;;;;22.25;48.08;98530.81;4991151;28;20058;-70
2022/08/31 11:50:02;;;;;;;3.92;1.40;;;;;;;22.21;47.97;98532.91;4992131;28;20053;-69
2022/08/31 11:52:47;;;;;;;5.43;1.00;;;;;;;22.00;48.32;98541.00;4992603;28;20061;-69
2022/08/31 11:55:22;;;;;;;2.25;1.05;;;;;;;21.74;49.08;98531.38;4991003;28;20046;-70
2022/08/31 11:58:08;;;;;;;5.43;0.90;;;;;;;21.46;49.73;98535.44;4991052;28;20058;-69
2022/08/31 12:00:56;;;;;;;3.50;0.75;;;;;;;21.15;49.90;98541.59;4992219;28;20066;-69
2022/08/31 12:03:37;;;;;;;2.35;1.10;;;;;;;21.01;49.85;98553.94;4989932;28;20046;-69
2022/08/31 12:06:07;;;;;;;3.03;0.82;;;;;;;20.82;48.69;98543.28;4992439;28;20050;-69
2022/08/31 12:08:51;;;;;;;4.65;0.82;;;;;;;20.57;48.27;98539.19;4991614;28;20413;-71